Terminal Aerodrome Forecast
Issued by NWS

Home | Current Version | Previous Version | Text Only | Print | Product List | Glossary On
Versions: 1 2 3 4 5 6 7 8 9 10 11 12 13 14 15 16 17 18 19 20 21 22 23 24 25 26 27 28 29 30
000
FTUS41 KCAR 021124
TAFBHB
TAF
KBHB 021124Z 0212/0312 22006KT 2SM BR BKN004
      TEMPO 0212/0213 3/4SM BR OVC002
     FM021300 22008KT P6SM BKN040
     FM021400 24010G18KT P6SM SCT050
     FM030000 24008KT P6SM SCT050
     FM030600 VRB03KT P6SM SKC
      AMD LTD TO CLD VIS AND WIND=

USA.gov is the U.S. government's official web portal to all federal, state and local government web resources and services.